Albion, Oklahoma
Current Conditions -  °F | °C
As of 2:35 PM on Tuesday 27 Jan 2015 (Local Time) from KRKR Reporting Station
Clear Clear  
Wind Chill: 70°   Ceiling: Unl
Heat Index: 70°   Visibility: 10mi
Dew Point: 32°   Wind: 0mph
Humidity: 24%   Direction: NA
Pressure: 30.11"   Gusts: NA
Location:  34.66°N, 95.1°W
Report Text: KRKR 272035Z AUTO 00000KT 10SM CLR 21/00 A3011 RMK AO2 T02131002
Loading
Personal Weather Stations






























Interactive Weather Map New forecast layout! Learn more

10-Day Weather Forecast

Advertisements
Track Severe Weather on mobile